createdAt,value
2023-04-20T00:00:44.205Z,20.30
2023-04-20T00:03:12.756Z,20.32
2023-04-20T00:05:39.428Z,20.37
2023-04-20T00:08:06.164Z,20.37
2023-04-20T00:10:32.805Z,20.31
2023-04-20T00:12:59.305Z,20.20
2023-04-20T00:15:25.946Z,20.20
2023-04-20T00:17:53.623Z,20.19
2023-04-20T00:20:20.364Z,20.16
2023-04-20T00:22:46.896Z,20.16
2023-04-20T00:25:13.397Z,20.32
2023-04-20T00:27:40.060Z,20.28
2023-04-20T00:30:07.248Z,20.27
2023-04-20T00:32:33.763Z,20.25
2023-04-20T00:35:00.383Z,20.23
2023-04-20T00:37:26.956Z,20.24
2023-04-20T00:39:55.483Z,20.26
2023-04-20T00:42:22.004Z,20.33
2023-04-20T00:44:48.506Z,20.17
2023-04-20T00:47:15.099Z,20.08
2023-04-20T00:49:41.771Z,20.24
2023-04-20T00:52:08.962Z,20.23
2023-04-20T00:54:36.296Z,20.31
2023-04-20T00:57:03.906Z,20.30
2023-04-20T00:59:30.415Z,20.18
2023-04-20T01:01:58.006Z,20.14
2023-04-20T01:04:25.011Z,20.04
2023-04-20T01:06:51.590Z,19.94
2023-04-20T01:09:18.258Z,19.90
2023-04-20T01:11:44.999Z,19.93
2023-04-20T01:14:15.908Z,21.06
2023-04-20T01:16:42.645Z,20.13
2023-04-20T01:19:12.289Z,19.91
2023-04-20T01:21:38.901Z,19.86
2023-04-20T01:24:06.394Z,19.78
2023-04-20T01:26:32.871Z,19.76
2023-04-20T01:28:59.379Z,19.70
2023-04-20T01:31:25.983Z,19.78
2023-04-20T01:33:52.569Z,19.72
2023-04-20T01:36:20.751Z,19.66
2023-04-20T01:38:47.592Z,19.65
2023-04-20T01:41:14.643Z,19.49
2023-04-20T01:43:41.322Z,19.64
2023-04-20T01:46:07.882Z,19.60
2023-04-20T01:48:34.992Z,19.59
2023-04-20T01:51:01.538Z,19.76
2023-04-20T01:53:28.082Z,19.72
2023-04-20T01:55:54.851Z,19.80
2023-04-20T01:58:22.767Z,19.78
2023-04-20T02:00:49.426Z,19.87
2023-04-20T02:03:16.473Z,19.89
2023-04-20T02:05:43.117Z,19.91
2023-04-20T02:08:09.705Z,19.87
2023-04-20T02:10:39.177Z,19.96
2023-04-20T02:13:05.682Z,19.99
2023-04-20T02:15:32.284Z,19.93
2023-04-20T02:17:58.902Z,20.06
2023-04-20T02:20:25.537Z,20.09
2023-04-20T02:22:52.060Z,20.09
2023-04-20T02:25:18.602Z,20.10
2023-04-20T02:27:45.124Z,20.08
2023-04-20T02:30:12.482Z,20.10
2023-04-20T02:32:41.291Z,20.10
2023-04-20T02:35:08.824Z,20.02
2023-04-20T02:37:35.337Z,20.08
2023-04-20T02:40:01.879Z,20.16
2023-04-20T02:42:29.193Z,19.99
2023-04-20T02:44:57.467Z,19.89
2023-04-20T02:47:24.505Z,19.92
2023-04-20T02:49:52.954Z,20.04
2023-04-20T02:52:19.574Z,20.03
2023-04-20T02:54:46.345Z,20.03
2023-04-20T02:57:13.378Z,19.96
2023-04-20T02:59:40.031Z,20.00
2023-04-20T03:02:16.055Z,20.01
2023-04-20T03:04:42.876Z,20.00
2023-04-20T03:07:17.801Z,20.09
2023-04-20T03:09:44.926Z,20.03
2023-04-20T03:12:31.816Z,20.08
2023-04-20T03:15:15.584Z,20.10
2023-04-20T03:17:52.468Z,20.08
2023-04-20T03:20:19.000Z,20.09
2023-04-20T03:22:45.711Z,20.11
2023-04-20T03:25:12.437Z,20.18
2023-04-20T03:27:52.993Z,20.27
2023-04-20T03:30:19.860Z,20.22
2023-04-20T03:32:51.407Z,20.20
2023-04-20T03:35:18.209Z,20.15
2023-04-20T03:37:44.815Z,20.06
2023-04-20T03:40:11.790Z,19.96
2023-04-20T03:42:38.334Z,20.03
2023-04-20T03:45:06.388Z,19.99
2023-04-20T03:47:33.274Z,20.04
2023-04-20T03:49:59.851Z,20.08
2023-04-20T03:52:26.409Z,20.15
2023-04-20T03:54:53.278Z,20.11
2023-04-20T03:57:19.836Z,20.13
2023-04-20T03:59:46.805Z,20.16
2023-04-20T04:02:17.601Z,20.25
2023-04-20T04:04:46.454Z,20.12
2023-04-20T04:07:13.053Z,20.22
2023-04-20T04:09:41.401Z,20.23
2023-04-20T04:12:08.664Z,20.17
2023-04-20T04:14:35.199Z,20.20
2023-04-20T04:17:02.226Z,20.03
2023-04-20T04:19:30.226Z,20.19
2023-04-20T04:21:56.784Z,20.19
2023-04-20T04:24:23.330Z,20.19
2023-04-20T04:26:59.426Z,20.27
2023-04-20T04:29:27.601Z,20.33
2023-04-20T04:34:37.638Z,20.40
2023-04-20T04:37:04.602Z,20.39
2023-04-20T04:39:45.569Z,20.52
2023-04-20T04:42:18.688Z,20.44
2023-04-20T04:44:46.149Z,20.42
2023-04-20T04:47:17.951Z,20.40
2023-04-20T04:49:45.551Z,20.43
2023-04-20T04:52:13.308Z,20.46
2023-04-20T04:54:39.779Z,20.44
2023-04-20T04:57:06.793Z,20.49
2023-04-20T04:59:33.363Z,20.27
2023-04-20T05:01:59.967Z,20.30
2023-04-20T05:04:26.675Z,20.42
2023-04-20T05:06:53.249Z,20.45
2023-04-20T05:09:20.146Z,20.51
2023-04-20T05:11:46.862Z,20.52
2023-04-20T05:14:13.439Z,20.57
2023-04-20T05:16:40.019Z,20.60
2023-04-20T05:19:06.569Z,20.58
2023-04-20T05:21:33.124Z,20.53
2023-04-20T05:23:59.705Z,20.53
2023-04-20T05:26:26.201Z,20.56
2023-04-20T05:28:52.692Z,20.63
2023-04-20T05:31:20.141Z,20.64
2023-04-20T05:33:46.713Z,20.63
2023-04-20T05:36:13.241Z,20.74
2023-04-20T05:38:39.801Z,20.62
2023-04-20T05:41:06.590Z,20.72
2023-04-20T05:43:33.088Z,20.29
2023-04-20T05:45:59.619Z,20.55
2023-04-20T05:48:29.877Z,20.57
2023-04-20T05:50:56.917Z,20.68
2023-04-20T05:53:23.429Z,20.58
2023-04-20T05:55:50.037Z,20.75
2023-04-20T05:58:17.064Z,20.72
2023-04-20T06:00:44.381Z,20.76
2023-04-20T06:03:11.157Z,20.78
2023-04-20T06:05:38.040Z,20.72
2023-04-20T06:08:04.814Z,20.86
2023-04-20T06:10:34.325Z,20.93
2023-04-20T06:13:01.004Z,20.71
2023-04-20T06:15:27.458Z,20.85
2023-04-20T06:17:54.044Z,20.84
2023-04-20T06:20:20.670Z,20.90
2023-04-20T06:22:47.310Z,20.95
2023-04-20T06:25:15.204Z,20.83
2023-04-20T06:27:42.256Z,20.82
2023-04-20T06:30:09.869Z,20.98
2023-04-20T06:32:36.623Z,21.03
2023-04-20T06:35:04.264Z,21.04
2023-04-20T06:37:30.784Z,21.12
2023-04-20T06:39:57.385Z,21.19
2023-04-20T06:42:23.896Z,21.16
2023-04-20T06:44:50.897Z,21.22
2023-04-20T06:47:17.435Z,21.20
2023-04-20T06:49:43.964Z,21.30
2023-04-20T06:52:10.478Z,21.30
2023-04-20T06:54:36.968Z,21.35
2023-04-20T06:57:03.457Z,21.23
2023-04-20T06:59:29.945Z,21.34
2023-04-20T07:01:56.498Z,21.38
2023-04-20T07:04:23.171Z,21.20
2023-04-20T07:06:53.828Z,21.28
2023-04-20T07:09:20.930Z,21.44
2023-04-20T07:11:47.431Z,21.49
2023-04-20T07:14:14.035Z,21.48
2023-04-20T07:16:40.587Z,21.47
2023-04-20T07:19:07.217Z,21.63
2023-04-20T07:21:33.980Z,21.62
2023-04-20T07:24:00.519Z,21.68
2023-04-20T07:26:27.030Z,21.72
2023-04-20T07:28:53.535Z,21.77
2023-04-20T07:31:20.201Z,22.01
2023-04-20T07:33:46.750Z,22.05
2023-04-20T07:36:13.246Z,21.84
2023-04-20T07:38:39.848Z,21.84
2023-04-20T07:41:10.011Z,22.11
2023-04-20T07:43:36.793Z,22.03
2023-04-20T07:46:03.446Z,22.13
2023-04-20T07:48:30.049Z,21.95
2023-04-20T07:50:56.630Z,22.05
2023-04-20T07:53:23.139Z,22.06
2023-04-20T07:55:51.027Z,22.19
2023-04-20T07:58:17.710Z,22.09
2023-04-20T08:00:46.401Z,22.07
2023-04-20T08:03:13.590Z,22.01
2023-04-20T08:05:40.990Z,22.05
2023-04-20T08:08:07.706Z,22.04
2023-04-20T08:10:35.177Z,22.05
2023-04-20T08:13:01.740Z,22.32
2023-04-20T08:15:28.323Z,22.49
2023-04-20T08:17:54.953Z,22.62
2023-04-20T08:20:21.464Z,22.88
2023-04-20T08:22:49.311Z,23.20
2023-04-20T08:25:15.931Z,24.10
2023-04-20T08:27:42.437Z,24.90
2023-04-20T08:30:09.454Z,25.43
2023-04-20T08:32:36.319Z,25.52
2023-04-20T08:35:04.212Z,25.15
2023-04-20T08:37:32.678Z,24.95
2023-04-20T08:39:59.671Z,24.91
2023-04-20T08:42:26.289Z,24.71
2023-04-20T08:44:53.027Z,24.48
2023-04-20T08:47:20.638Z,24.26
2023-04-20T08:49:48.407Z,24.18
2023-04-20T08:52:15.022Z,23.99
2023-04-20T08:54:55.267Z,23.94
2023-04-20T08:57:22.966Z,23.85
2023-04-20T08:59:49.484Z,23.70
2023-04-20T09:02:16.246Z,23.52
2023-04-20T09:04:42.914Z,23.42
2023-04-20T09:07:21.969Z,23.49
2023-04-20T09:09:56.163Z,23.31
2023-04-20T09:12:23.165Z,22.99
2023-04-20T09:14:49.690Z,22.91
2023-04-20T09:17:17.907Z,22.80
2023-04-20T09:19:45.223Z,22.67
2023-04-20T09:22:12.055Z,22.70
2023-04-20T09:24:39.860Z,22.78
2023-04-20T09:27:16.742Z,23.00
2023-04-20T09:29:43.326Z,22.81
2023-04-20T09:32:22.131Z,23.12
2023-04-20T09:34:48.786Z,22.76
2023-04-20T09:37:16.566Z,22.66
2023-04-20T09:39:46.481Z,22.92
2023-04-20T09:42:14.190Z,22.76
2023-04-20T09:44:40.674Z,22.87
2023-04-20T09:47:08.564Z,22.84
2023-04-20T09:49:35.628Z,22.92
2023-04-20T09:52:03.614Z,23.11
2023-04-20T09:54:30.594Z,23.05
2023-04-20T09:57:01.690Z,23.30
2023-04-20T09:59:28.629Z,24.72
2023-04-20T10:01:55.409Z,23.82
2023-04-20T10:04:22.139Z,23.92
2023-04-20T10:06:57.908Z,24.36
2023-04-20T10:09:26.288Z,24.61
2023-04-20T10:11:55.144Z,24.63
2023-04-20T10:14:26.142Z,24.88
2023-04-20T10:17:00.111Z,24.96
2023-04-20T10:19:56.210Z,25.30
2023-04-20T10:22:32.981Z,24.89
2023-04-20T10:25:00.865Z,24.66
2023-04-20T10:27:27.682Z,24.62
2023-04-20T10:29:54.386Z,24.58
2023-04-20T10:32:28.203Z,24.53
2023-04-20T10:35:02.815Z,24.95
2023-04-20T10:37:29.679Z,24.91
2023-04-20T10:39:56.300Z,25.12
2023-04-20T10:42:22.900Z,25.56
2023-04-20T10:44:49.476Z,25.87
2023-04-20T10:47:17.013Z,26.30
2023-04-20T10:49:43.477Z,26.60
2023-04-20T10:52:10.026Z,26.98
2023-04-20T10:54:37.982Z,27.34
2023-04-20T10:57:05.324Z,27.55
2023-04-20T10:59:31.819Z,27.83
2023-04-20T11:02:01.355Z,27.86
2023-04-20T11:04:36.905Z,28.20
2023-04-20T11:07:13.027Z,28.23
2023-04-20T11:09:39.838Z,27.78
2023-04-20T11:12:12.202Z,27.65
2023-04-20T11:14:53.822Z,27.96
2023-04-20T11:17:20.745Z,27.46
2023-04-20T11:19:47.659Z,27.26
2023-04-20T11:22:21.352Z,27.36
2023-04-20T11:24:47.869Z,26.99
2023-04-20T11:27:22.132Z,26.98
2023-04-20T11:29:57.322Z,27.02
2023-04-20T11:32:24.494Z,26.73
2023-04-20T11:35:07.849Z,27.04
2023-04-20T11:37:46.776Z,26.75
2023-04-20T11:40:13.678Z,26.35
2023-04-20T11:42:40.319Z,26.09
2023-04-20T11:45:07.398Z,25.92
2023-04-20T11:47:33.938Z,25.90
2023-04-20T11:50:00.445Z,25.85
2023-04-20T11:52:27.373Z,25.90
2023-04-20T11:54:53.853Z,25.76
2023-04-20T11:57:23.661Z,25.79
2023-04-20T11:59:50.292Z,25.89
2023-04-20T12:02:16.897Z,26.10
2023-04-20T12:04:43.624Z,26.35
2023-04-20T12:07:10.767Z,26.49
2023-04-20T12:09:38.387Z,26.91
2023-04-20T12:12:05.379Z,27.10
2023-04-20T12:14:33.722Z,27.33
2023-04-20T12:17:01.436Z,27.40
2023-04-20T12:19:28.152Z,27.47
2023-04-20T12:21:55.718Z,27.50
2023-04-20T12:24:22.558Z,27.90
2023-04-20T12:26:49.157Z,28.30
2023-04-20T12:29:16.620Z,28.37
2023-04-20T12:31:43.396Z,28.35
2023-04-20T12:34:09.925Z,28.24
2023-04-20T12:36:36.722Z,28.23
2023-04-20T12:39:03.736Z,28.29
2023-04-20T12:41:30.393Z,28.44
2023-04-20T12:43:56.978Z,28.65
2023-04-20T12:46:23.520Z,28.77
2023-04-20T12:48:50.150Z,29.32
2023-04-20T12:51:16.755Z,29.87
2023-04-20T12:53:43.274Z,30.10
2023-04-20T12:56:09.837Z,29.97
2023-04-20T12:58:36.531Z,29.73
2023-04-20T13:01:03.557Z,29.48
2023-04-20T13:03:30.390Z,29.55
2023-04-20T13:05:57.043Z,29.66
2023-04-20T13:08:23.742Z,30.20
2023-04-20T13:10:50.253Z,30.79
2023-04-20T13:13:16.879Z,31.33
2023-04-20T13:15:43.457Z,31.77
2023-04-20T13:18:10.145Z,32.16
2023-04-20T13:20:36.857Z,32.51
2023-04-20T13:23:04.276Z,32.72
2023-04-20T13:25:35.173Z,32.84
2023-04-20T13:28:02.435Z,34.02
2023-04-20T13:30:28.995Z,32.44
2023-04-20T13:32:55.729Z,31.99
2023-04-20T13:35:22.360Z,31.72
2023-04-20T13:37:49.001Z,31.60
2023-04-20T13:40:15.601Z,31.45
2023-04-20T13:42:42.502Z,31.37
2023-04-20T13:45:10.291Z,31.40
2023-04-20T13:47:38.171Z,31.31
2023-04-20T13:50:05.834Z,31.01
2023-04-20T13:52:32.422Z,31.08
2023-04-20T13:54:58.960Z,30.76
2023-04-20T13:57:25.619Z,31.18
2023-04-20T13:59:53.046Z,31.55
2023-04-20T14:02:19.654Z,32.09
2023-04-20T14:04:46.361Z,32.39
2023-04-20T14:07:12.930Z,32.90
2023-04-20T14:09:39.429Z,33.28
2023-04-20T14:12:05.991Z,33.49
2023-04-20T14:14:32.564Z,33.60
2023-04-20T14:16:59.062Z,33.46
2023-04-20T14:19:25.644Z,33.33
2023-04-20T14:21:52.309Z,32.99
2023-04-20T14:24:18.993Z,32.49
2023-04-20T14:26:45.806Z,31.95
2023-04-20T14:29:12.303Z,31.25
2023-04-20T14:31:38.898Z,31.03
2023-04-20T14:34:05.551Z,30.85
2023-04-20T14:36:32.514Z,30.65
2023-04-20T14:38:58.988Z,30.33
2023-04-20T14:41:25.604Z,30.11
2023-04-20T14:43:52.097Z,29.93
2023-04-20T14:46:19.048Z,29.91
2023-04-20T14:48:46.496Z,29.77
2023-04-20T14:51:13.574Z,29.57
2023-04-20T14:53:40.222Z,29.62
2023-04-20T14:56:06.795Z,29.53
2023-04-20T14:58:33.378Z,29.44
2023-04-20T15:00:59.876Z,29.49
2023-04-20T15:03:26.691Z,29.31
2023-04-20T15:05:53.693Z,29.36
2023-04-20T15:08:20.264Z,29.16
2023-04-20T15:10:46.778Z,29.10
2023-04-20T15:13:13.490Z,29.17
2023-04-20T15:15:48.161Z,29.06
2023-04-20T15:18:16.842Z,29.07
2023-04-20T15:20:43.783Z,29.08
2023-04-20T15:23:10.417Z,29.18
2023-04-20T15:25:36.905Z,29.06
2023-04-20T15:28:03.434Z,28.98
2023-04-20T15:30:30.516Z,28.92
2023-04-20T15:33:04.620Z,28.77
2023-04-20T15:35:32.371Z,28.72
2023-04-20T15:37:59.041Z,28.63
2023-04-20T15:40:27.262Z,28.72
2023-04-20T15:42:55.813Z,28.71
2023-04-20T15:45:23.061Z,28.65
2023-04-20T15:47:49.858Z,28.55
2023-04-20T15:50:16.699Z,28.58
2023-04-20T15:52:43.799Z,28.43
2023-04-20T15:55:10.986Z,28.58
2023-04-20T15:57:37.497Z,28.57
2023-04-20T16:00:04.469Z,28.60
2023-04-20T16:02:37.024Z,28.54
2023-04-20T16:05:04.301Z,28.41
2023-04-20T16:07:30.923Z,28.46
2023-04-20T16:09:57.428Z,28.55
2023-04-20T16:12:24.063Z,28.60
2023-04-20T16:14:53.195Z,28.56
2023-04-20T16:17:20.315Z,28.52
2023-04-20T16:19:46.838Z,28.47
2023-04-20T16:22:14.163Z,28.47
2023-04-20T16:24:40.740Z,28.50
2023-04-20T16:27:07.308Z,28.60
2023-04-20T16:29:33.832Z,28.65
2023-04-20T16:32:00.575Z,28.55
2023-04-20T16:34:27.175Z,28.58
2023-04-20T16:36:53.764Z,28.40
2023-04-20T16:39:20.304Z,28.35
2023-04-20T16:41:46.873Z,28.25
2023-04-20T16:44:14.441Z,28.27
2023-04-20T16:46:41.923Z,28.14
2023-04-20T16:49:09.154Z,28.13
2023-04-20T16:51:35.846Z,28.07
2023-04-20T16:54:02.374Z,28.20
2023-04-20T16:56:28.953Z,28.20
2023-04-20T16:58:55.632Z,28.12
2023-04-20T17:01:22.425Z,28.10
2023-04-20T17:03:49.249Z,28.02
2023-04-20T17:06:15.937Z,28.01
2023-04-20T17:08:42.429Z,28.03
2023-04-20T17:11:08.952Z,27.88
2023-04-20T17:13:35.471Z,27.99
2023-04-20T17:16:02.004Z,27.96
2023-04-20T17:18:28.522Z,27.91
2023-04-20T17:20:57.235Z,27.85
2023-04-20T17:23:23.819Z,27.83
2023-04-20T17:25:51.278Z,27.76
2023-04-20T17:28:17.873Z,27.76
2023-04-20T17:30:44.543Z,27.77
2023-04-20T17:33:14.443Z,27.78
2023-04-20T17:35:41.224Z,27.63
2023-04-20T17:38:07.851Z,27.68
2023-04-20T17:40:34.732Z,27.72
2023-04-20T17:43:01.900Z,27.64
2023-04-20T17:45:28.535Z,27.79
2023-04-20T17:47:55.077Z,27.74
2023-04-20T17:50:22.648Z,27.68
2023-04-20T17:52:49.133Z,27.63
2023-04-20T17:55:15.627Z,27.62
2023-04-20T17:57:42.169Z,27.42
2023-04-20T18:00:11.562Z,27.40
2023-04-20T18:02:52.506Z,27.62
2023-04-20T18:05:19.251Z,27.36
2023-04-20T18:07:45.733Z,27.28
2023-04-20T18:10:15.786Z,27.26
2023-04-20T18:12:42.844Z,27.35
2023-04-20T18:15:09.665Z,27.21
2023-04-20T18:17:36.225Z,27.03
2023-04-20T18:20:05.583Z,26.95
2023-04-20T18:22:32.753Z,26.99
2023-04-20T18:24:59.262Z,26.88
2023-04-20T18:27:26.300Z,26.72
2023-04-20T18:29:53.638Z,26.75
2023-04-20T18:32:20.916Z,26.69
2023-04-20T18:34:47.755Z,26.54
2023-04-20T18:37:15.040Z,26.64
2023-04-20T18:39:41.679Z,26.52
2023-04-20T18:42:08.201Z,26.53
2023-04-20T18:44:35.086Z,26.51
2023-04-20T18:47:01.857Z,26.42
2023-04-20T18:49:30.001Z,26.43
2023-04-20T18:51:56.574Z,26.47
2023-04-20T18:54:23.175Z,26.40
2023-04-20T18:56:50.397Z,26.41
2023-04-20T18:59:16.994Z,26.33
2023-04-20T19:01:43.612Z,26.31
2023-04-20T19:04:10.403Z,26.26
2023-04-20T19:06:36.975Z,26.25
2023-04-20T19:09:04.174Z,26.26
2023-04-20T19:11:32.050Z,26.27
2023-04-20T19:13:58.570Z,26.31
2023-04-20T19:16:25.119Z,26.26
2023-04-20T19:18:51.987Z,26.22
2023-04-20T19:21:20.268Z,26.19
2023-04-20T19:23:48.133Z,26.18
2023-04-20T19:26:15.650Z,26.19
2023-04-20T19:28:42.202Z,26.01
2023-04-20T19:31:10.921Z,25.99
2023-04-20T19:33:38.038Z,25.97
2023-04-20T19:36:06.283Z,25.89
2023-04-20T19:38:34.601Z,25.94
2023-04-20T19:41:01.411Z,25.93
2023-04-20T19:43:28.110Z,25.89
2023-04-20T19:45:58.128Z,26.05
2023-04-20T19:48:25.552Z,25.87
2023-04-20T19:50:52.126Z,25.99
2023-04-20T19:53:19.253Z,25.98
2023-04-20T19:55:45.853Z,25.93
2023-04-20T19:58:13.365Z,25.86
2023-04-20T20:00:40.159Z,25.97
2023-04-20T20:03:10.372Z,25.97
2023-04-20T20:05:36.993Z,25.98
2023-04-20T20:08:04.362Z,25.89
2023-04-20T20:10:30.879Z,25.84
2023-04-20T20:12:57.394Z,25.78
2023-04-20T20:15:23.952Z,25.76
2023-04-20T20:17:50.940Z,25.76
2023-04-20T20:20:17.482Z,25.74
2023-04-20T20:22:48.210Z,25.71
2023-04-20T20:25:16.152Z,25.79
2023-04-20T20:27:42.649Z,25.72
2023-04-20T20:30:09.813Z,25.62
2023-04-20T20:32:36.308Z,25.64
2023-04-20T20:35:04.642Z,25.58
2023-04-20T20:37:34.613Z,25.62
2023-04-20T20:40:07.033Z,25.60
2023-04-20T20:42:34.063Z,25.48
2023-04-20T20:45:01.073Z,25.43
2023-04-20T20:47:27.651Z,25.42
2023-04-20T20:49:54.178Z,25.47
2023-04-20T20:52:21.171Z,25.36
2023-04-20T20:54:48.266Z,25.37
2023-04-20T20:57:14.932Z,25.35
2023-04-20T20:59:41.467Z,25.32
2023-04-20T21:02:08.144Z,25.42
2023-04-20T21:04:34.750Z,25.47
2023-04-20T21:07:01.277Z,25.49
2023-04-20T21:09:27.793Z,25.47
2023-04-20T21:11:56.614Z,25.45
2023-04-20T21:14:23.235Z,25.46
2023-04-20T21:16:49.881Z,25.42
2023-04-20T21:19:16.611Z,25.39
2023-04-20T21:21:43.461Z,25.30
2023-04-20T21:24:09.920Z,25.35
2023-04-20T21:26:36.419Z,25.31
2023-04-20T21:29:03.623Z,25.32
2023-04-20T21:31:30.870Z,25.34
2023-04-20T21:33:57.908Z,25.36
2023-04-20T21:36:24.403Z,25.33
2023-04-20T21:38:50.952Z,25.33
2023-04-20T21:41:17.475Z,25.32
2023-04-20T21:43:44.007Z,25.29
2023-04-20T21:46:14.417Z,25.44
2023-04-20T21:48:41.302Z,25.36
2023-04-20T21:51:07.845Z,25.31
2023-04-20T21:53:34.421Z,25.25
2023-04-20T21:56:00.945Z,25.23
2023-04-20T21:58:27.432Z,25.22
2023-04-20T22:00:53.999Z,25.18
2023-04-20T22:03:20.706Z,25.08
2023-04-20T22:05:47.438Z,25.15
2023-04-20T22:08:15.241Z,25.16
2023-04-20T22:10:42.093Z,25.12
2023-04-20T22:13:08.575Z,25.05
2023-04-20T22:15:35.080Z,25.07
2023-04-20T22:18:03.973Z,25.08
2023-04-20T22:20:31.528Z,25.05
2023-04-20T22:23:00.973Z,24.93
2023-04-20T22:25:27.451Z,25.00
2023-04-20T22:27:53.917Z,25.01
2023-04-20T22:30:20.692Z,24.96
2023-04-20T22:32:47.457Z,24.81
2023-04-20T22:35:14.046Z,24.90
2023-04-20T22:37:40.910Z,24.94
2023-04-20T22:40:08.238Z,24.81
2023-04-20T22:42:36.108Z,24.88
2023-04-20T22:45:03.665Z,24.85
2023-04-20T22:47:30.296Z,24.83
2023-04-20T22:49:56.999Z,24.83
2023-04-20T22:52:23.528Z,24.96
2023-04-20T22:54:50.016Z,24.89
2023-04-20T22:57:18.134Z,24.91
2023-04-20T22:59:44.745Z,24.99
2023-04-20T23:02:11.320Z,24.97
2023-04-20T23:04:37.967Z,24.93
2023-04-20T23:07:08.027Z,24.98
2023-04-20T23:09:37.982Z,25.07
2023-04-20T23:12:04.700Z,24.99
2023-04-20T23:14:32.044Z,24.94
2023-04-20T23:17:00.002Z,24.98
2023-04-20T23:19:26.537Z,24.92
2023-04-20T23:21:53.031Z,24.94
2023-04-20T23:24:19.528Z,24.73
2023-04-20T23:26:46.057Z,24.83
2023-04-20T23:29:12.596Z,24.77
2023-04-20T23:31:39.204Z,24.72
2023-04-20T23:34:06.033Z,24.72
2023-04-20T23:36:32.888Z,24.77
2023-04-20T23:38:59.365Z,24.65
2023-04-20T23:41:25.977Z,24.60
2023-04-20T23:43:52.465Z,24.65
2023-04-20T23:46:19.163Z,24.65
2023-04-20T23:48:45.760Z,24.49
2023-04-20T23:51:12.277Z,24.45
2023-04-20T23:53:39.329Z,24.57
2023-04-20T23:56:06.495Z,24.51
2023-04-20T23:58:32.972Z,24.56
